Renner Field-Goodland Municipal Airport
KGLD : now visible

Airfield :











YOU CAN JOIN US ON...

 
LOGIN :

Register | Disclaimer

   EN    FR    IT 

 









Legend :    VFR   Marginal VFR   IFR   Intensive IFR   Very Intensive IFR
Visi :
Ceiling :
>= 8 km
>= 3000ft
5 to 8 km
1000 to 3000 ft
1500m to 5 km
500 to 1000 ft
800 to 1500m
200 to 500 ft
< 800m
< 200 ft
Symbols :   Thunderstorms  Fog  Heavy snow  Heavy precipitations  Wind > 20 kt






- Airport Elevation : 3656 ft


KGLD - Renner Field-Goodland Municipal

CURRENT METAR :
  • 251853Z AUTO 36023G32KT 10SM SCT045 16/04 A2994 RMK AO2 PK WND 35034/1807 SLP125 T01560044

EXPIRED METARs :
  • 251753Z AUTO 36017G31KT 10SM BKN040 15/06 A2996 RMK AO2 PK WND 01032/1655 SLP133 T01500056 10150 20072 55002
  • 251653Z AUTO 01018G30KT 10SM FEW029 BKN041 13/06 A2996 RMK AO2 PK WND 36030/1631 SLP134 T01330061

TAF KGLD
Valid from the 25 at 18:00 until the 26 at 18:00 UTC


251720Z 2518/2618 36022G31KT P6SM FEW035
FM260000 36012G20KT P6SM FEW100 FEW250
FM260200 01008KT P6SM FEW100 FEW250
FM260600 30007KT P6SM SKC
KZDV FIR / North America



MET'MAP, your aeronautical weather chart ! - Copyright ORBIFLY December 2007 - Disclaimer

ORBIFLY MET'MAP TEAM :

Programming & Development : Alexandra Zaïnal
Original concept : Baudouin d'Aumeries
Technical & hardware support : Manuel Goepfert
Assistance : Marc-Olivier Méhu

Contact : metmap@orbifly.com




SOURCES & CREDITS :

   NOAA       Earth
Advisory